sensor_id;sensor_type;location;lat;lon;timestamp;pressure;altitude;pressure_sealevel;temperature;humidity
8069;BME280;4077;43.702;24.896;2023-05-14T00:00:14;100055.09;;;13.07;100.00
8069;BME280;4077;43.702;24.896;2023-05-14T00:02:39;100046.28;;;12.93;100.00
8069;BME280;4077;43.702;24.896;2023-05-14T00:05:05;100026.44;;;12.93;100.00
8069;BME280;4077;43.702;24.896;2023-05-14T00:07:31;100047.19;;;12.96;100.00
8069;BME280;4077;43.702;24.896;2023-05-14T00:09:57;100057.53;;;12.96;100.00
8069;BME280;4077;43.702;24.896;2023-05-14T00:12:23;100053.22;;;12.94;100.00
8069;BME280;4077;43.702;24.896;2023-05-14T00:14:49;100041.09;;;12.93;100.00
8069;BME280;4077;43.702;24.896;2023-05-14T00:17:14;100032.47;;;12.94;100.00
8069;BME280;4077;43.702;24.896;2023-05-14T00:19:40;100032.31;;;12.78;100.00
8069;BME280;4077;43.702;24.896;2023-05-14T00:22:09;100040.09;;;12.80;100.00
8069;BME280;4077;43.702;24.896;2023-05-14T00:24:35;100033.97;;;12.72;100.00
8069;BME280;4077;43.702;24.896;2023-05-14T00:27:01;100040.03;;;12.74;100.00
8069;BME280;4077;43.702;24.896;2023-05-14T00:29:27;100039.94;;;12.68;100.00
8069;BME280;4077;43.702;24.896;2023-05-14T00:31:52;100040.91;;;12.74;100.00
8069;BME280;4077;43.702;24.896;2023-05-14T00:34:18;100035.78;;;12.80;100.00
8069;BME280;4077;43.702;24.896;2023-05-14T00:36:43;100038.31;;;12.76;100.00
8069;BME280;4077;43.702;24.896;2023-05-14T00:39:09;100040.88;;;12.73;100.00
8069;BME280;4077;43.702;24.896;2023-05-14T00:41:34;100023.59;;;12.70;100.00
8069;BME280;4077;43.702;24.896;2023-05-14T00:44:00;100036.56;;;12.72;100.00
8069;BME280;4077;43.702;24.896;2023-05-14T00:46:26;100036.41;;;12.58;100.00
8069;BME280;4077;43.702;24.896;2023-05-14T00:48:52;100038.19;;;12.64;100.00
8069;BME280;4077;43.702;24.896;2023-05-14T00:51:18;100037.34;;;12.65;100.00
8069;BME280;4077;43.702;24.896;2023-05-14T00:53:45;100040.72;;;12.59;100.00
8069;BME280;4077;43.702;24.896;2023-05-14T00:56:11;100022.59;;;12.57;100.00
8069;BME280;4077;43.702;24.896;2023-05-14T00:58:37;100033.81;;;12.59;100.00
8069;BME280;4077;43.702;24.896;2023-05-14T01:01:03;100023.47;;;12.59;100.00
8069;BME280;4077;43.702;24.896;2023-05-14T01:03:31;100021.81;;;12.68;100.00
8069;BME280;4077;43.702;24.896;2023-05-14T01:16:57;100029.41;;;12.52;100.00
8069;BME280;4077;43.702;24.896;2023-05-14T01:19:34;100025.16;;;12.56;100.00
8069;BME280;4077;43.702;24.896;2023-05-14T01:22:01;100019.00;;;12.48;100.00
8069;BME280;4077;43.702;24.896;2023-05-14T01:24:26;100023.38;;;12.52;100.00
8069;BME280;4077;43.702;24.896;2023-05-14T01:26:54;100014.09;;;12.71;100.00
8069;BME280;4077;43.702;24.896;2023-05-14T01:29:27;100012.31;;;12.68;100.00
8069;BME280;4077;43.702;24.896;2023-05-14T01:31:54;100022.75;;;12.73;100.00
8069;BME280;4077;43.702;24.896;2023-05-14T01:34:22;100018.41;;;12.70;100.00
8069;BME280;4077;43.702;24.896;2023-05-14T01:36:49;100021.97;;;12.78;100.00
8069;BME280;4077;43.702;24.896;2023-05-14T01:39:16;100024.25;;;12.55;100.00
8069;BME280;4077;43.702;24.896;2023-05-14T01:41:43;100019.91;;;12.51;100.00
8069;BME280;4077;43.702;24.896;2023-05-14T01:44:09;100018.22;;;12.55;100.00
8069;BME280;4077;43.702;24.896;2023-05-14T01:46:35;100014.69;;;12.48;100.00
8069;BME280;4077;43.702;24.896;2023-05-14T01:49:00;100010.38;;;12.47;100.00
8069;BME280;4077;43.702;24.896;2023-05-14T01:51:26;100021.63;;;12.49;100.00
8069;BME280;4077;43.702;24.896;2023-05-14T01:53:52;100024.22;;;12.49;100.00
8069;BME280;4077;43.702;24.896;2023-05-14T01:56:19;100023.31;;;12.49;100.00
8069;BME280;4077;43.702;24.896;2023-05-14T01:58:48;100012.03;;;12.42;100.00
8069;BME280;4077;43.702;24.896;2023-05-14T02:01:14;100018.03;;;12.40;100.00
8069;BME280;4077;43.702;24.896;2023-05-14T02:03:40;100004.91;;;12.26;100.00
8069;BME280;4077;43.702;24.896;2023-05-14T02:06:05;100012.78;;;12.35;100.00
8069;BME280;4077;43.702;24.896;2023-05-14T02:08:31;100011.97;;;12.36;100.00
8069;BME280;4077;43.702;24.896;2023-05-14T02:10:56;100001.38;;;12.18;100.00
8069;BME280;4077;43.702;24.896;2023-05-14T02:13:22;100013.56;;;12.26;100.00
8069;BME280;4077;43.702;24.896;2023-05-14T02:15:48;100010.19;;;12.32;100.00
8069;BME280;4077;43.702;24.896;2023-05-14T02:18:13;100017.16;;;12.39;100.00
8069;BME280;4077;43.702;24.896;2023-05-14T02:20:39;100016.38;;;12.43;100.00
8069;BME280;4077;43.702;24.896;2023-05-14T02:23:05;100020.72;;;12.47;100.00
8069;BME280;4077;43.702;24.896;2023-05-14T02:25:30;100006.72;;;12.33;100.00
8069;BME280;4077;43.702;24.896;2023-05-14T02:27:56;100018.97;;;12.43;100.00
8069;BME280;4077;43.702;24.896;2023-05-14T02:30:21;100015.59;;;12.50;100.00
8069;BME280;4077;43.702;24.896;2023-05-14T02:32:46;100019.84;;;12.47;100.00
8069;BME280;4077;43.702;24.896;2023-05-14T02:35:12;100013.91;;;12.55;100.00
8069;BME280;4077;43.702;24.896;2023-05-14T02:37:37;100013.88;;;12.52;100.00
8069;BME280;4077;43.702;24.896;2023-05-14T02:40:03;100020.72;;;12.47;100.00
8069;BME280;4077;43.702;24.896;2023-05-14T02:42:29;100004.47;;;12.59;100.00
8069;BME280;4077;43.702;24.896;2023-05-14T02:44:54;100013.91;;;12.55;100.00
8069;BME280;4077;43.702;24.896;2023-05-14T02:47:20;100010.38;;;12.47;100.00
8069;BME280;4077;43.702;24.896;2023-05-14T02:49:45;99996.44;;;12.38;100.00
8069;BME280;4077;43.702;24.896;2023-05-14T02:52:11;99996.38;;;12.33;100.00
8069;BME280;4077;43.702;24.896;2023-05-14T02:54:36;100004.09;;;12.28;100.00
8069;BME280;4077;43.702;24.896;2023-05-14T02:57:02;100023.28;;;12.43;100.00
8069;BME280;4077;43.702;24.896;2023-05-14T02:59:28;100024.19;;;12.48;100.00
8069;BME280;4077;43.702;24.896;2023-05-14T03:01:55;100020.56;;;12.35;100.00
8069;BME280;4077;43.702;24.896;2023-05-14T03:04:21;100017.94;;;12.30;100.00
8069;BME280;4077;43.702;24.896;2023-05-14T03:06:46;100002.41;;;12.30;100.00
8069;BME280;4077;43.702;24.896;2023-05-14T03:09:11;100016.41;;;12.46;100.00
8069;BME280;4077;43.702;24.896;2023-05-14T03:11:37;100017.25;;;12.47;100.00
8069;BME280;4077;43.702;24.896;2023-05-14T03:14:02;100019.06;;;12.51;100.00
8069;BME280;4077;43.702;24.896;2023-05-14T03:16:28;100025.97;;;12.53;100.00
8069;BME280;4077;43.702;24.896;2023-05-14T03:18:53;100029.41;;;12.52;100.00
8069;BME280;4077;43.702;24.896;2023-05-14T03:21:19;100012.84;;;12.40;100.00
8069;BME280;4077;43.702;24.896;2023-05-14T03:23:44;100012.75;;;12.30;100.00
8069;BME280;4077;43.702;24.896;2023-05-14T03:26:09;100019.66;;;12.31;100.00
8069;BME280;4077;43.702;24.896;2023-05-14T03:28:35;100035.38;;;12.44;100.00
8069;BME280;4077;43.702;24.896;2023-05-14T03:31:00;100030.09;;;12.38;100.00
8069;BME280;4077;43.702;24.896;2023-05-14T03:33:26;100026.56;;;12.31;100.00
8069;BME280;4077;43.702;24.896;2023-05-14T03:35:52;100028.19;;;12.23;100.00
8069;BME280;4077;43.702;24.896;2023-05-14T03:38:17;100030.03;;;12.31;100.00
8069;BME280;4077;43.702;24.896;2023-05-14T03:40:43;100024.09;;;12.40;100.00
8069;BME280;4077;43.702;24.896;2023-05-14T03:43:09;100030.13;;;12.41;100.00
8069;BME280;4077;43.702;24.896;2023-05-14T03:45:35;100022.44;;;12.45;100.00
8069;BME280;4077;43.702;24.896;2023-05-14T03:48:01;100013.72;;;12.39;100.00
8069;BME280;4077;43.702;24.896;2023-05-14T03:50:26;100015.47;;;12.41;100.00
8069;BME280;4077;43.702;24.896;2023-05-14T03:52:52;100010.34;;;12.44;100.00
8069;BME280;4077;43.702;24.896;2023-05-14T03:55:19;100030.25;;;12.50;100.00
8069;BME280;4077;43.702;24.896;2023-05-14T03:57:45;100025.94;;;12.50;100.00
8069;BME280;4077;43.702;24.896;2023-05-14T04:00:11;100002.50;;;12.41;100.00
8069;BME280;4077;43.702;24.896;2023-05-14T04:02:36;100014.66;;;12.47;100.00
8069;BME280;4077;43.702;24.896;2023-05-14T04:05:02;100012.16;;;12.51;100.00
8069;BME280;4077;43.702;24.896;2023-05-14T04:07:28;100008.72;;;12.55;100.00
8069;BME280;4077;43.702;24.896;2023-05-14T04:09:53;100010.44;;;12.53;100.00
8069;BME280;4077;43.702;24.896;2023-05-14T04:12:19;99999.22;;;12.53;100.00
8069;BME280;4077;43.702;24.896;2023-05-14T04:14:44;100007.19;;;12.70;100.00
8069;BME280;4077;43.702;24.896;2023-05-14T04:17:10;100006.44;;;12.80;100.00
8069;BME280;4077;43.702;24.896;2023-05-14T04:19:35;100011.75;;;12.97;97.73
8069;BME280;4077;43.702;24.896;2023-05-14T04:22:01;100010.97;;;13.02;94.88
8069;BME280;4077;43.702;24.896;2023-05-14T04:24:26;100019.69;;;13.10;94.45
8069;BME280;4077;43.702;24.896;2023-05-14T04:26:52;100013.75;;;13.19;94.47
8069;BME280;4077;43.702;24.896;2023-05-14T04:29:17;100025.03;;;13.24;93.91
8069;BME280;4077;43.702;24.896;2023-05-14T04:31:43;100015.50;;;13.22;94.71
8069;BME280;4077;43.702;24.896;2023-05-14T04:34:08;100023.47;;;13.40;94.35
8069;BME280;4077;43.702;24.896;2023-05-14T04:36:34;100012.28;;;13.46;93.63
8069;BME280;4077;43.702;24.896;2023-05-14T04:38:59;100029.72;;;13.68;92.24
8069;BME280;4077;43.702;24.896;2023-05-14T04:41:25;100039.25;;;13.71;92.22
8069;BME280;4077;43.702;24.896;2023-05-14T04:43:54;100050.56;;;13.79;93.30
8069;BME280;4077;43.702;24.896;2023-05-14T04:46:20;100044.47;;;13.74;95.28
8069;BME280;4077;43.702;24.896;2023-05-14T04:48:47;100043.56;;;13.68;95.67
8069;BME280;4077;43.702;24.896;2023-05-14T04:51:13;100039.31;;;13.77;96.06
8069;BME280;4077;43.702;24.896;2023-05-14T04:53:38;100032.44;;;13.82;96.71
8069;BME280;4077;43.702;24.896;2023-05-14T04:56:07;100037.66;;;13.91;96.72
8069;BME280;4077;43.702;24.896;2023-05-14T04:58:32;100039.34;;;13.86;98.52
8069;BME280;4077;43.702;24.896;2023-05-14T05:00:58;100039.34;;;13.83;98.94
8069;BME280;4077;43.702;24.896;2023-05-14T05:03:24;100030.69;;;13.81;96.49
8069;BME280;4077;43.702;24.896;2023-05-14T05:05:49;100036.84;;;13.93;95.65
8069;BME280;4077;43.702;24.896;2023-05-14T05:08:15;100036.84;;;13.96;99.00
8069;BME280;4077;43.702;24.896;2023-05-14T05:10:40;100043.75;;;13.94;100.00
8069;BME280;4077;43.702;24.896;2023-05-14T05:13:06;100055.94;;;14.02;100.00
8069;BME280;4077;43.702;24.896;2023-05-14T05:15:31;100042.09;;;14.01;100.00
8069;BME280;4077;43.702;24.896;2023-05-14T05:17:57;100043.81;;;14.04;100.00
8069;BME280;4077;43.702;24.896;2023-05-14T05:20:22;100042.03;;;13.98;100.00
8069;BME280;4077;43.702;24.896;2023-05-14T05:22:49;100046.41;;;14.04;100.00
8069;BME280;4077;43.702;24.896;2023-05-14T05:25:14;100039.47;;;14.01;100.00
8069;BME280;4077;43.702;24.896;2023-05-14T05:27:40;100042.94;;;14.03;100.00
8069;BME280;4077;43.702;24.896;2023-05-14T05:30:06;100034.34;;;14.07;100.00
8069;BME280;4077;43.702;24.896;2023-05-14T05:32:32;100040.44;;;14.14;100.00
8069;BME280;4077;43.702;24.896;2023-05-14T05:34:58;100043.06;;;14.21;100.00
8069;BME280;4077;43.702;24.896;2023-05-14T05:37:23;100051.72;;;14.27;100.00
8069;BME280;4077;43.702;24.896;2023-05-14T05:39:49;100063.84;;;14.24;100.00
8069;BME280;4077;43.702;24.896;2023-05-14T05:42:14;100065.63;;;14.32;100.00
8069;BME280;4077;43.702;24.896;2023-05-14T05:44:40;100062.13;;;14.23;98.29
8069;BME280;4077;43.702;24.896;2023-05-14T05:47:05;100078.56;;;14.27;96.49
8069;BME280;4077;43.702;24.896;2023-05-14T05:49:31;100069.88;;;14.20;96.33
8069;BME280;4077;43.702;24.896;2023-05-14T05:51:56;100072.53;;;14.31;95.51
8069;BME280;4077;43.702;24.896;2023-05-14T05:54:22;100079.47;;;14.31;94.15
8069;BME280;4077;43.702;24.896;2023-05-14T05:56:49;100086.38;;;14.32;94.20
8069;BME280;4077;43.702;24.896;2023-05-14T05:59:14;100082.19;;;14.47;94.56
8069;BME280;4077;43.702;24.896;2023-05-14T06:01:40;100083.94;;;14.55;94.76
8069;BME280;4077;43.702;24.896;2023-05-14T06:04:08;100088.31;;;14.59;96.43
8069;BME280;4077;43.702;24.896;2023-05-14T06:06:33;100091.78;;;14.65;97.73
8069;BME280;4077;43.702;24.896;2023-05-14T06:08:59;100082.22;;;14.50;98.89
8069;BME280;4077;43.702;24.896;2023-05-14T06:11:26;100090.03;;;14.57;100.00
8069;BME280;4077;43.702;24.896;2023-05-14T06:13:52;100083.09;;;14.57;100.00
8069;BME280;4077;43.702;24.896;2023-05-14T06:16:17;100083.09;;;14.60;99.37
8069;BME280;4077;43.702;24.896;2023-05-14T06:18:43;100092.69;;;14.72;96.75
8069;BME280;4077;43.702;24.896;2023-05-14T06:21:08;100094.47;;;14.87;96.43
8069;BME280;4077;43.702;24.896;2023-05-14T06:23:34;100104.94;;;14.97;94.60
8069;BME280;4077;43.702;24.896;2023-05-14T06:25:59;100105.81;;;15.05;94.10
8069;BME280;4077;43.702;24.896;2023-05-14T06:28:24;100115.38;;;15.13;94.91
8069;BME280;4077;43.702;24.896;2023-05-14T06:30:50;100115.41;;;15.26;92.69
8069;BME280;4077;43.702;24.896;2023-05-14T06:33:18;100119.75;;;15.24;88.18
8069;BME280;4077;43.702;24.896;2023-05-14T06:35:45;100113.66;;;15.30;86.98
8069;BME280;4077;43.702;24.896;2023-05-14T06:38:10;100108.47;;;15.28;85.61
8069;BME280;4077;43.702;24.896;2023-05-14T06:40:36;100105.91;;;15.47;85.53
8069;BME280;4077;43.702;24.896;2023-05-14T06:43:01;100098.09;;;15.50;85.19
8069;BME280;4077;43.702;24.896;2023-05-14T06:45:27;100118.09;;;15.69;85.82
8069;BME280;4077;43.702;24.896;2023-05-14T06:47:52;100103.34;;;15.85;85.84
8069;BME280;4077;43.702;24.896;2023-05-14T06:50:17;100113.78;;;15.83;84.77
8069;BME280;4077;43.702;24.896;2023-05-14T06:52:43;100125.94;;;15.94;84.95
8069;BME280;4077;43.702;24.896;2023-05-14T06:55:09;100119.00;;;16.06;84.71
8069;BME280;4077;43.702;24.896;2023-05-14T06:57:34;100114.63;;;16.10;84.43
8069;BME280;4077;43.702;24.896;2023-05-14T07:00:00;100111.16;;;16.08;84.06
8069;BME280;4077;43.702;24.896;2023-05-14T07:02:25;100099.00;;;16.10;82.40
8069;BME280;4077;43.702;24.896;2023-05-14T07:04:51;100120.69;;;16.24;81.12
8069;BME280;4077;43.702;24.896;2023-05-14T07:07:16;100119.84;;;16.13;79.69
8069;BME280;4077;43.702;24.896;2023-05-14T07:09:45;100117.22;;;16.22;79.19
8069;BME280;4077;43.702;24.896;2023-05-14T07:12:10;100110.25;;;16.26;77.85
8069;BME280;4077;43.702;24.896;2023-05-14T07:14:35;100106.81;;;16.24;80.02
8069;BME280;4077;43.702;24.896;2023-05-14T07:17:01;100115.47;;;16.30;80.16
8069;BME280;4077;43.702;24.896;2023-05-14T07:19:26;100105.94;;;16.23;86.27
8069;BME280;4077;43.702;24.896;2023-05-14T07:21:53;100105.91;;;16.26;89.42
8069;BME280;4077;43.702;24.896;2023-05-14T07:24:19;100099.88;;;16.27;88.99
8069;BME280;4077;43.702;24.896;2023-05-14T07:26:44;100099.84;;;16.33;87.54
8069;BME280;4077;43.702;24.896;2023-05-14T07:29:10;100106.75;;;16.51;82.67
8069;BME280;4077;43.702;24.896;2023-05-14T07:31:35;100115.38;;;16.84;78.72
8069;BME280;4077;43.702;24.896;2023-05-14T07:34:01;100114.47;;;16.89;75.37
8069;BME280;4077;43.702;24.896;2023-05-14T07:36:26;100111.84;;;16.97;78.77
8069;BME280;4077;43.702;24.896;2023-05-14T07:38:52;100099.56;;;17.14;79.25
8069;BME280;4077;43.702;24.896;2023-05-14T07:41:17;100103.88;;;17.20;74.73
8069;BME280;4077;43.702;24.896;2023-05-14T07:43:43;100086.44;;;17.31;77.31
8069;BME280;4077;43.702;24.896;2023-05-14T07:46:08;100086.47;;;17.25;76.52
8069;BME280;4077;43.702;24.896;2023-05-14T07:48:33;100080.41;;;17.20;75.14
8069;BME280;4077;43.702;24.896;2023-05-14T07:50:59;100085.53;;;17.29;75.45
8069;BME280;4077;43.702;24.896;2023-05-14T07:53:24;100088.16;;;17.29;73.45
8069;BME280;4077;43.702;24.896;2023-05-14T07:55:50;100087.22;;;17.39;72.25
8069;BME280;4077;43.702;24.896;2023-05-14T07:58:16;100089.81;;;17.45;74.72
8069;BME280;4077;43.702;24.896;2023-05-14T08:00:41;100101.06;;;17.49;74.68
8069;BME280;4077;43.702;24.896;2023-05-14T08:03:07;100091.56;;;17.40;74.93
8069;BME280;4077;43.702;24.896;2023-05-14T08:05:32;100099.41;;;17.39;75.45
8069;BME280;4077;43.702;24.896;2023-05-14T08:07:58;100096.78;;;17.40;76.09
8069;BME280;4077;43.702;24.896;2023-05-14T08:10:23;100098.59;;;17.32;76.98
8069;BME280;4077;43.702;24.896;2023-05-14T08:12:49;100098.53;;;17.44;76.49
8069;BME280;4077;43.702;24.896;2023-05-14T08:15:14;100111.56;;;17.46;74.83
8069;BME280;4077;43.702;24.896;2023-05-14T08:17:40;100115.88;;;17.48;73.26
8069;BME280;4077;43.702;24.896;2023-05-14T08:20:06;100115.88;;;17.50;73.25
8069;BME280;4077;43.702;24.896;2023-05-14T08:22:31;100113.28;;;17.45;72.25
8069;BME280;4077;43.702;24.896;2023-05-14T08:24:57;100108.97;;;17.44;72.76
8069;BME280;4077;43.702;24.896;2023-05-14T08:27:23;100099.41;;;17.39;72.11
8069;BME280;4077;43.702;24.896;2023-05-14T08:29:49;100106.34;;;17.44;70.84
8069;BME280;4077;43.702;24.896;2023-05-14T08:32:14;100105.44;;;17.48;71.11
8069;BME280;4077;43.702;24.896;2023-05-14T08:34:40;100096.78;;;17.43;70.89
8069;BME280;4077;43.702;24.896;2023-05-14T08:37:05;100093.38;;;17.29;70.41
8069;BME280;4077;43.702;24.896;2023-05-14T08:39:31;100101.19;;;17.32;72.50
8069;BME280;4077;43.702;24.896;2023-05-14T08:41:57;100090.78;;;17.31;72.93
8069;BME280;4077;43.702;24.896;2023-05-14T08:46:58;100083.84;;;17.25;73.10
8069;BME280;4077;43.702;24.896;2023-05-14T08:50:00;100085.44;;;17.43;73.44
8069;BME280;4077;43.702;24.896;2023-05-14T08:52:28;100097.66;;;17.39;73.62
8069;BME280;4077;43.702;24.896;2023-05-14T08:54:55;100096.78;;;17.43;73.42
8069;BME280;4077;43.702;24.896;2023-05-14T08:57:21;100094.09;;;17.53;73.83
8069;BME280;4077;43.702;24.896;2023-05-14T08:59:51;100083.59;;;17.62;74.23
8069;BME280;4077;43.702;24.896;2023-05-14T09:02:19;100098.31;;;17.70;73.84
8069;BME280;4077;43.702;24.896;2023-05-14T09:05:07;100089.53;;;17.85;73.83
8069;BME280;4077;43.702;24.896;2023-05-14T09:07:36;100093.78;;;17.98;75.33
8069;BME280;4077;43.702;24.896;2023-05-14T09:10:02;100095.50;;;17.98;73.61
8069;BME280;4077;43.702;24.896;2023-05-14T09:12:49;100086.81;;;17.96;73.11
8069;BME280;4077;43.702;24.896;2023-05-14T09:15:43;100088.59;;;17.91;73.31
8069;BME280;4077;43.702;24.896;2023-05-14T09:25:53;100081.78;;;17.77;77.17
8069;BME280;4077;43.702;24.896;2023-05-14T09:29:00;100091.31;;;17.77;77.93
8069;BME280;4077;43.702;24.896;2023-05-14T09:31:29;100087.81;;;17.81;81.33
8069;BME280;4077;43.702;24.896;2023-05-14T09:33:56;100082.44;;;17.96;80.92
8069;BME280;4077;43.702;24.896;2023-05-14T09:36:22;100087.63;;;18.02;80.31
8069;BME280;4077;43.702;24.896;2023-05-14T09:38:49;100089.50;;;17.91;82.17
8069;BME280;4077;43.702;24.896;2023-05-14T09:41:14;100089.53;;;17.85;85.40
8069;BME280;4077;43.702;24.896;2023-05-14T09:43:40;100087.75;;;17.87;84.41
8069;BME280;4077;43.702;24.896;2023-05-14T09:46:06;100085.16;;;17.87;79.26
8069;BME280;4077;43.702;24.896;2023-05-14T09:48:31;100063.41;;;17.85;86.17
8069;BME280;4077;43.702;24.896;2023-05-14T09:50:57;100072.88;;;17.97;88.18
8069;BME280;4077;43.702;24.896;2023-05-14T09:53:22;100064.16;;;17.96;88.88
8069;BME280;4077;43.702;24.896;2023-05-14T09:55:48;100053.78;;;17.92;79.42
8069;BME280;4077;43.702;24.896;2023-05-14T09:58:13;100050.22;;;17.99;80.20
8069;BME280;4077;43.702;24.896;2023-05-14T10:00:43;100048.44;;;18.02;84.33
8069;BME280;4077;43.702;24.896;2023-05-14T10:03:12;100038.78;;;18.09;85.54
8069;BME280;4077;43.702;24.896;2023-05-14T10:05:40;100032.69;;;18.09;79.77
8069;BME280;4077;43.702;24.896;2023-05-14T10:08:13;100035.97;;;18.29;75.29
8069;BME280;4077;43.702;24.896;2023-05-14T10:10:42;100031.53;;;18.36;76.60
8069;BME280;4077;43.702;24.896;2023-05-14T10:13:13;100020.16;;;18.41;76.19
8069;BME280;4077;43.702;24.896;2023-05-14T10:15:42;100019.22;;;18.44;72.25
8069;BME280;4077;43.702;24.896;2023-05-14T10:18:12;100019.06;;;18.57;70.08
8069;BME280;4077;43.702;24.896;2023-05-14T10:20:40;100008.69;;;18.51;68.77
8069;BME280;4077;43.702;24.896;2023-05-14T10:23:07;100007.72;;;18.58;69.27
8069;BME280;4077;43.702;24.896;2023-05-14T10:25:34;100002.13;;;18.86;69.29
8069;BME280;4077;43.702;24.896;2023-05-14T10:28:01;99998.56;;;18.92;69.55
8069;BME280;4077;43.702;24.896;2023-05-14T10:30:26;99987.09;;;19.03;67.83
8069;BME280;4077;43.702;24.896;2023-05-14T10:33:10;99979.81;;;19.21;65.30
8069;BME280;4077;43.702;24.896;2023-05-14T10:35:57;99981.34;;;19.34;62.31
8069;BME280;4077;43.702;24.896;2023-05-14T10:38:28;99981.25;;;19.40;62.21
8069;BME280;4077;43.702;24.896;2023-05-14T10:41:01;99989.81;;;19.51;60.10
8069;BME280;4077;43.702;24.896;2023-05-14T10:43:28;99996.59;;;19.64;58.85
8069;BME280;4077;43.702;24.896;2023-05-14T10:45:56;99996.38;;;19.77;59.09
8069;BME280;4077;43.702;24.896;2023-05-14T10:48:22;99985.66;;;19.89;57.68
8069;BME280;4077;43.702;24.896;2023-05-14T10:50:50;99994.13;;;20.03;56.40
8069;BME280;4077;43.702;24.896;2023-05-14T10:53:16;99984.34;;;20.13;55.85
8069;BME280;4077;43.702;24.896;2023-05-14T10:55:42;99973.00;;;20.12;55.47
8069;BME280;4077;43.702;24.896;2023-05-14T10:58:09;99953.22;;;20.38;54.92
8069;BME280;4077;43.702;24.896;2023-05-14T11:00:35;99956.63;;;20.43;54.15
8069;BME280;4077;43.702;24.896;2023-05-14T11:03:05;99971.34;;;20.50;53.30
8069;BME280;4077;43.702;24.896;2023-05-14T11:05:32;99982.38;;;20.67;53.13
8069;BME280;4077;43.702;24.896;2023-05-14T11:07:58;99968.34;;;20.68;52.88
8069;BME280;4077;43.702;24.896;2023-05-14T11:10:26;99970.06;;;20.69;53.30
8069;BME280;4077;43.702;24.896;2023-05-14T11:12:54;99960.59;;;21.01;53.04
8069;BME280;4077;43.702;24.896;2023-05-14T11:15:21;99948.28;;;21.03;52.07
8069;BME280;4077;43.702;24.896;2023-05-14T11:17:48;99954.97;;;21.16;52.38
8069;BME280;4077;43.702;24.896;2023-05-14T11:20:14;99956.03;;;21.45;51.85
8069;BME280;4077;43.702;24.896;2023-05-14T11:22:41;99946.25;;;21.51;51.80
8069;BME280;4077;43.702;24.896;2023-05-14T11:25:08;99958.38;;;21.57;51.33
8069;BME280;4077;43.702;24.896;2023-05-14T11:27:34;99951.69;;;21.44;51.11
8069;BME280;4077;43.702;24.896;2023-05-14T11:30:01;99938.22;;;21.22;51.04
8069;BME280;4077;43.702;24.896;2023-05-14T11:32:28;99944.78;;;21.41;51.27
8069;BME280;4077;43.702;24.896;2023-05-14T11:34:55;99934.03;;;21.81;51.67
8069;BME280;4077;43.702;24.896;2023-05-14T11:37:21;99948.47;;;21.99;51.38
8069;BME280;4077;43.702;24.896;2023-05-14T11:39:51;99936.28;;;21.95;50.35
8069;BME280;4077;43.702;24.896;2023-05-14T11:42:17;99934.94;;;21.80;50.54
8069;BME280;4077;43.702;24.896;2023-05-14T11:44:48;99940.94;;;21.85;50.49
8069;BME280;4077;43.702;24.896;2023-05-14T11:47:16;99941.53;;;21.64;50.83
8069;BME280;4077;43.702;24.896;2023-05-14T11:49:42;99936.03;;;21.73;50.87
8069;BME280;4077;43.702;24.896;2023-05-14T11:52:09;99933.72;;;21.94;51.17
8069;BME280;4077;43.702;24.896;2023-05-14T11:54:36;99922.91;;;22.03;51.94
8069;BME280;4077;43.702;24.896;2023-05-14T11:57:09;99911.13;;;21.87;50.06
8069;BME280;4077;43.702;24.896;2023-05-14T11:59:35;99912.13;;;21.82;51.09
8069;BME280;4077;43.702;24.896;2023-05-14T12:02:02;99917.41;;;21.81;50.84
8069;BME280;4077;43.702;24.896;2023-05-14T12:04:29;99909.50;;;21.82;51.26
8069;BME280;4077;43.702;24.896;2023-05-14T12:06:57;99911.22;;;21.83;50.92
8069;BME280;4077;43.702;24.896;2023-05-14T12:09:23;99913.75;;;21.87;51.15
8069;BME280;4077;43.702;24.896;2023-05-14T12:11:50;99905.25;;;22.08;50.86
8069;BME280;4077;43.702;24.896;2023-05-14T12:14:17;99909.06;;;21.98;51.56
8069;BME280;4077;43.702;24.896;2023-05-14T12:16:44;99889.34;;;21.83;51.04
8069;BME280;4077;43.702;24.896;2023-05-14T12:19:13;99901.41;;;21.89;51.54
8069;BME280;4077;43.702;24.896;2023-05-14T12:21:39;99888.66;;;21.76;51.97
8069;BME280;4077;43.702;24.896;2023-05-14T12:24:12;99898.91;;;21.85;51.43
8069;BME280;4077;43.702;24.896;2023-05-14T12:26:38;99888.72;;;21.73;50.68
8069;BME280;4077;43.702;24.896;2023-05-14T12:29:04;99900.94;;;21.74;50.79
8069;BME280;4077;43.702;24.896;2023-05-14T12:31:33;99899.06;;;21.79;51.05
8069;BME280;4077;43.702;24.896;2023-05-14T12:33:59;99890.97;;;21.87;51.99
8069;BME280;4077;43.702;24.896;2023-05-14T12:36:24;99881.22;;;21.91;52.02
8069;BME280;4077;43.702;24.896;2023-05-14T12:38:57;99873.19;;;21.95;51.71
8069;BME280;4077;43.702;24.896;2023-05-14T12:41:23;99871.81;;;21.83;51.27
8069;BME280;4077;43.702;24.896;2023-05-14T12:43:48;99866.59;;;22.13;51.26
8069;BME280;4077;43.702;24.896;2023-05-14T12:46:14;99878.31;;;22.31;50.47
8069;BME280;4077;43.702;24.896;2023-05-14T12:48:40;99861.88;;;22.24;49.62
8069;BME280;4077;43.702;24.896;2023-05-14T12:51:06;99849.94;;;22.13;49.72
8069;BME280;4077;43.702;24.896;2023-05-14T12:53:32;99849.13;;;22.10;50.41
8069;BME280;4077;43.702;24.896;2023-05-14T12:55:57;99842.44;;;21.99;49.33
8069;BME280;4077;43.702;24.896;2023-05-14T12:58:23;99840.72;;;21.98;49.71
8069;BME280;4077;43.702;24.896;2023-05-14T13:00:48;99839.88;;;21.96;49.58
8069;BME280;4077;43.702;24.896;2023-05-14T13:03:14;99831.13;;;21.97;49.76
8069;BME280;4077;43.702;24.896;2023-05-14T13:05:39;99836.09;;;22.06;49.01
8069;BME280;4077;43.702;24.896;2023-05-14T13:08:04;99826.72;;;21.96;48.14
8069;BME280;4077;43.702;24.896;2023-05-14T13:10:30;99832.88;;;21.96;48.74
8069;BME280;4077;43.702;24.896;2023-05-14T13:12:56;99828.72;;;21.88;48.31
8069;BME280;4077;43.702;24.896;2023-05-14T13:15:22;99817.53;;;21.82;47.77